createdAt,value
2019-01-16T00:00:48.741Z,1010.38
2019-01-16T00:01:48.693Z,1010.36
2019-01-16T00:02:48.685Z,1010.35
2019-01-16T00:03:48.740Z,1010.42
2019-01-16T00:04:48.660Z,1010.36
2019-01-16T00:05:48.651Z,1010.40
2019-01-16T00:06:48.640Z,1010.30
2019-01-16T00:07:48.632Z,1010.32
2019-01-16T00:08:48.655Z,1010.33
2019-01-16T00:09:48.632Z,1010.33
2019-01-16T00:10:48.596Z,1010.33
2019-01-16T00:11:48.584Z,1010.36
2019-01-16T00:12:48.577Z,1010.43
2019-01-16T00:13:48.563Z,1010.42
2019-01-16T00:14:48.575Z,1010.45
2019-01-16T00:15:48.561Z,1010.38
2019-01-16T00:16:48.544Z,1010.52
2019-01-16T00:17:48.525Z,1010.39
2019-01-16T00:18:48.525Z,1010.40
2019-01-16T00:19:48.554Z,1010.33
2019-01-16T00:20:48.493Z,1010.34
2019-01-16T00:21:48.475Z,1010.34
2019-01-16T00:22:48.496Z,1010.28
2019-01-16T00:23:48.453Z,1010.31
2019-01-16T00:24:48.507Z,1010.24
2019-01-16T00:25:48.431Z,1010.25
2019-01-16T00:26:48.425Z,1010.24
2019-01-16T00:27:48.449Z,1010.29
2019-01-16T00:28:48.422Z,1010.20
2019-01-16T00:29:48.398Z,1010.21
2019-01-16T00:30:48.395Z,1010.23
2019-01-16T00:31:48.369Z,1010.24
2019-01-16T00:32:48.356Z,1010.28
2019-01-16T00:33:48.350Z,1010.19
2019-01-16T00:34:48.335Z,1010.23
2019-01-16T00:35:48.347Z,1010.25
2019-01-16T00:36:48.312Z,1010.22
2019-01-16T00:37:48.302Z,1010.26
2019-01-16T00:38:48.294Z,1010.24
2019-01-16T00:39:48.284Z,1010.26
2019-01-16T00:40:48.294Z,1010.22
2019-01-16T00:41:48.258Z,1010.18
2019-01-16T00:42:48.251Z,1010.23
2019-01-16T00:43:48.244Z,1010.19
2019-01-16T00:44:48.240Z,1010.18
2019-01-16T00:45:48.238Z,1010.14
2019-01-16T00:46:48.875Z,1010.16
2019-01-16T00:47:48.210Z,1010.10
2019-01-16T00:48:48.199Z,1010.15
2019-01-16T00:49:48.185Z,1010.13
2019-01-16T00:50:48.210Z,1010.12
2019-01-16T00:51:48.149Z,1010.09
2019-01-16T00:52:48.140Z,1010.08
2019-01-16T00:53:48.136Z,1010.11
2019-01-16T00:54:48.165Z,1010.09
2019-01-16T00:55:48.298Z,1010.10
2019-01-16T00:56:48.115Z,1010.04
2019-01-16T00:57:48.089Z,1010.05
2019-01-16T00:58:48.095Z,1010.08
2019-01-16T00:59:48.062Z,1010.13
2019-01-16T01:00:55.638Z,1010.05
2019-01-16T01:01:48.101Z,1010.07
2019-01-16T01:02:48.035Z,1010.08
2019-01-16T01:03:48.020Z,1010.01
2019-01-16T01:04:48.012Z,1010.07
2019-01-16T01:05:48.001Z,1010.04
2019-01-16T01:06:48.005Z,1010.06
2019-01-16T01:07:47.985Z,1010.11
2019-01-16T01:08:48.023Z,1010.10
2019-01-16T01:09:47.994Z,1010.07
2019-01-16T01:10:47.947Z,1010.09
2019-01-16T01:11:47.977Z,1010.03
2019-01-16T01:12:47.925Z,1010.01
2019-01-16T01:13:47.917Z,1010.05
2019-01-16T01:14:47.969Z,1009.98
2019-01-16T01:15:47.901Z,1010.02
2019-01-16T01:16:47.880Z,1009.99
2019-01-16T01:17:47.888Z,1009.95
2019-01-16T01:18:47.861Z,1010.05
2019-01-16T01:19:47.892Z,1010.01
2019-01-16T01:20:47.877Z,1009.90
2019-01-16T01:21:47.871Z,1010.01
2019-01-16T01:22:47.880Z,1009.93
2019-01-16T01:23:47.813Z,1009.93
2019-01-16T01:24:48.071Z,1009.90
2019-01-16T01:25:47.789Z,1009.97
2019-01-16T01:26:47.813Z,1009.90
2019-01-16T01:27:47.765Z,1009.98
2019-01-16T01:28:47.759Z,1009.95
2019-01-16T01:29:47.738Z,1009.93
2019-01-16T01:30:47.739Z,1009.96
2019-01-16T01:31:47.750Z,1009.91
2019-01-16T01:32:47.732Z,1010.01
2019-01-16T01:33:47.713Z,1009.95
2019-01-16T01:34:47.688Z,1009.96
2019-01-16T01:35:47.673Z,1009.93
2019-01-16T01:36:47.668Z,1009.95
2019-01-16T01:37:47.681Z,1009.98
2019-01-16T01:38:47.667Z,1009.95
2019-01-16T01:39:47.638Z,1009.99
2019-01-16T01:40:47.625Z,1009.97
2019-01-16T01:41:47.611Z,1010.04
2019-01-16T01:42:47.714Z,1010.03
2019-01-16T01:43:47.604Z,1010.04
2019-01-16T01:44:47.579Z,1010.02
2019-01-16T01:45:47.569Z,1010.06
2019-01-16T01:46:47.873Z,1010.07
2019-01-16T01:47:47.553Z,1009.99
2019-01-16T01:48:47.602Z,1009.99
2019-01-16T01:49:47.529Z,1009.98
2019-01-16T01:50:47.512Z,1010.00
2019-01-16T01:51:47.515Z,1009.98
2019-01-16T01:52:47.491Z,1010.02
2019-01-16T01:53:47.503Z,1010.02
2019-01-16T01:54:47.512Z,1009.98
2019-01-16T01:55:47.528Z,1009.95
2019-01-16T01:56:47.451Z,1009.97
2019-01-16T01:57:47.453Z,1009.93
2019-01-16T01:58:47.470Z,1009.90
2019-01-16T01:59:47.421Z,1009.91
2019-01-16T02:00:47.412Z,1009.92
2019-01-16T02:01:47.396Z,1009.93
2019-01-16T02:02:47.389Z,1009.83
2019-01-16T02:03:47.404Z,1009.92
2019-01-16T02:04:47.383Z,1009.86
2019-01-16T02:05:47.361Z,1009.91
2019-01-16T02:06:47.369Z,1009.84
2019-01-16T02:07:47.341Z,1009.84
2019-01-16T02:08:47.330Z,1009.85
2019-01-16T02:09:47.329Z,1009.90
2019-01-16T02:10:47.300Z,1009.87
2019-01-16T02:11:47.296Z,1009.89
2019-01-16T02:12:47.299Z,1009.90
2019-01-16T02:13:47.266Z,1009.96
2019-01-16T02:14:55.996Z,1009.86
2019-01-16T02:15:55.809Z,1009.92
2019-01-16T02:16:55.791Z,1009.89
2019-01-16T02:17:55.782Z,1009.89
2019-01-16T02:18:55.388Z,1009.86
2019-01-16T02:21:04.642Z,1009.84
2019-01-16T02:22:04.639Z,1009.79
2019-01-16T02:23:04.722Z,1009.77
2019-01-16T02:24:04.641Z,1009.73
2019-01-16T02:25:04.597Z,1009.74
2019-01-16T02:26:04.590Z,1009.73
2019-01-16T02:27:04.582Z,1009.74
2019-01-16T02:28:04.565Z,1009.79
2019-01-16T02:29:12.112Z,1009.79
2019-01-16T02:30:04.572Z,1009.75
2019-01-16T02:31:04.537Z,1009.79
2019-01-16T02:32:04.534Z,1009.73
2019-01-16T02:33:04.518Z,1009.80
2019-01-16T02:34:04.518Z,1009.77
2019-01-16T02:35:04.510Z,1009.74
2019-01-16T02:37:23.246Z,1009.80
2019-01-16T02:38:23.236Z,1009.80
2019-01-16T02:39:23.279Z,1009.79
2019-01-16T02:40:23.240Z,1009.77
2019-01-16T02:41:23.202Z,1009.74
2019-01-16T02:42:23.188Z,1009.75
2019-01-16T02:43:23.180Z,1009.73
2019-01-16T02:44:23.175Z,1009.72
2019-01-16T02:45:23.207Z,1009.72
2019-01-16T02:46:23.154Z,1009.68
2019-01-16T02:47:23.143Z,1009.71
2019-01-16T02:48:23.122Z,1009.65
2019-01-16T02:50:40.330Z,1009.61
2019-01-16T02:51:40.305Z,1009.65
2019-01-16T02:52:40.312Z,1009.60
2019-01-16T02:53:40.272Z,1009.59
2019-01-16T02:54:40.269Z,1009.56
2019-01-16T02:55:40.256Z,1009.48
2019-01-16T02:56:40.276Z,1009.55
2019-01-16T02:57:40.237Z,1009.56
2019-01-16T02:58:40.254Z,1009.55
2019-01-16T02:59:40.215Z,1009.47
2019-01-16T03:00:40.197Z,1009.45
2019-01-16T03:01:40.219Z,1009.43
2019-01-16T03:02:40.176Z,1009.46
2019-01-16T03:03:40.200Z,1009.44
2019-01-16T03:04:40.183Z,1009.37
2019-01-16T03:05:40.158Z,1009.34
2019-01-16T03:06:40.157Z,1009.33
2019-01-16T03:07:40.219Z,1009.31
2019-01-16T03:08:40.114Z,1009.29
2019-01-16T03:09:40.102Z,1009.29
2019-01-16T03:10:40.091Z,1009.27
2019-01-16T03:11:40.391Z,1009.25
2019-01-16T03:12:40.075Z,1009.32
2019-01-16T03:13:40.062Z,1009.27
2019-01-16T03:14:40.066Z,1009.22
2019-01-16T03:15:40.035Z,1009.23
2019-01-16T03:16:40.064Z,1009.26
2019-01-16T03:17:40.032Z,1009.21
2019-01-16T03:18:40.014Z,1009.24
2019-01-16T03:19:39.996Z,1009.18
2019-01-16T03:20:39.983Z,1009.20
2019-01-16T03:21:39.975Z,1009.18
2019-01-16T03:22:39.999Z,1009.17
2019-01-16T03:23:39.943Z,1009.17
2019-01-16T03:24:39.942Z,1009.12
2019-01-16T03:25:39.932Z,1009.15
2019-01-16T03:26:39.929Z,1009.12
2019-01-16T03:27:39.946Z,1009.08
2019-01-16T03:28:39.902Z,1009.03
2019-01-16T03:29:39.880Z,1009.05
2019-01-16T03:30:39.871Z,1009.01
2019-01-16T03:31:39.873Z,1009.00
2019-01-16T03:32:39.920Z,1008.98
2019-01-16T03:33:39.959Z,1008.99
2019-01-16T03:34:39.838Z,1008.93
2019-01-16T03:35:39.826Z,1008.89
2019-01-16T03:36:39.811Z,1008.89
2019-01-16T03:37:39.825Z,1008.85
2019-01-16T03:38:39.846Z,1008.83
2019-01-16T03:39:39.822Z,1008.88
2019-01-16T03:40:39.766Z,1008.87
2019-01-16T03:41:39.757Z,1008.84
2019-01-16T03:42:39.771Z,1008.83
2019-01-16T03:43:39.748Z,1008.87
2019-01-16T03:44:39.726Z,1008.85
2019-01-16T03:45:39.722Z,1008.82
2019-01-16T03:46:39.709Z,1008.83
2019-01-16T03:47:39.709Z,1008.79
2019-01-16T03:48:39.692Z,1008.80
2019-01-16T03:49:39.679Z,1008.75
2019-01-16T03:50:39.668Z,1008.73
2019-01-16T03:51:39.717Z,1008.76
2019-01-16T03:54:29.711Z,1008.72
2019-01-16T03:55:29.682Z,1008.65
2019-01-16T03:56:29.662Z,1008.68
2019-01-16T03:57:29.653Z,1008.68
2019-01-16T03:58:29.740Z,1008.68
2019-01-16T03:59:29.630Z,1008.72
2019-01-16T04:00:29.682Z,1008.64
2019-01-16T04:01:29.630Z,1008.68
2019-01-16T04:02:29.601Z,1008.69
2019-01-16T04:03:29.598Z,1008.62
2019-01-16T04:04:29.618Z,1008.62
2019-01-16T04:05:29.566Z,1008.59
2019-01-16T04:06:30.226Z,1008.59
2019-01-16T04:08:45.746Z,1008.54
2019-01-16T04:09:45.712Z,1008.57
2019-01-16T04:10:45.706Z,1008.54
2019-01-16T04:11:45.694Z,1008.51
2019-01-16T04:12:45.692Z,1008.51
2019-01-16T04:13:45.704Z,1008.51
2019-01-16T04:14:45.663Z,1008.51
2019-01-16T04:15:45.658Z,1008.49
2019-01-16T04:16:45.639Z,1008.48
2019-01-16T04:17:45.636Z,1008.44
2019-01-16T04:18:45.629Z,1008.44
2019-01-16T04:19:45.642Z,1008.49
2019-01-16T04:20:53.139Z,1008.45
2019-01-16T04:21:45.584Z,1008.41
2019-01-16T04:22:45.571Z,1008.40
2019-01-16T04:23:45.564Z,1008.36
2019-01-16T04:24:45.579Z,1008.38
2019-01-16T04:25:45.609Z,1008.37
2019-01-16T04:26:45.535Z,1008.28
2019-01-16T04:27:45.527Z,1008.31
2019-01-16T04:28:45.513Z,1008.31
2019-01-16T04:29:45.520Z,1008.26
2019-01-16T04:30:45.488Z,1008.28
2019-01-16T04:31:45.515Z,1008.27
2019-01-16T04:32:45.474Z,1008.22
2019-01-16T04:33:45.454Z,1008.22
2019-01-16T04:34:45.476Z,1008.16
2019-01-16T04:35:45.443Z,1008.18
2019-01-16T04:36:45.436Z,1008.14
2019-01-16T04:37:45.438Z,1008.18
2019-01-16T04:38:45.470Z,1008.16
2019-01-16T04:39:45.437Z,1008.15
2019-01-16T04:40:45.382Z,1008.11
2019-01-16T04:41:45.375Z,1008.12
2019-01-16T04:42:45.363Z,1008.10
2019-01-16T04:43:45.348Z,1008.09
2019-01-16T04:44:45.396Z,1008.10
2019-01-16T04:45:45.403Z,1008.03
2019-01-16T04:46:45.316Z,1008.04
2019-01-16T04:47:45.303Z,1008.03
2019-01-16T04:48:45.311Z,1008.01
2019-01-16T04:49:45.315Z,1007.99
2019-01-16T04:50:45.275Z,1008.03
2019-01-16T04:51:45.256Z,1008.02
2019-01-16T04:52:45.251Z,1007.98
2019-01-16T04:53:53.803Z,1007.99
2019-01-16T04:54:45.277Z,1007.96
2019-01-16T04:55:45.218Z,1007.97
2019-01-16T04:56:45.213Z,1007.93
2019-01-16T04:57:45.196Z,1007.94
2019-01-16T04:58:45.187Z,1007.99
2019-01-16T04:59:45.198Z,1007.98
2019-01-16T05:00:45.172Z,1007.95
2019-01-16T05:01:45.152Z,1007.93
2019-01-16T05:02:45.146Z,1007.90
2019-01-16T05:03:45.132Z,1007.91
2019-01-16T05:04:45.122Z,1007.86
2019-01-16T05:05:45.137Z,1007.87
2019-01-16T05:06:45.100Z,1007.82
2019-01-16T05:07:45.104Z,1007.79
2019-01-16T05:08:45.080Z,1007.75
2019-01-16T05:09:45.084Z,1007.73
2019-01-16T05:10:45.053Z,1007.72
2019-01-16T05:11:45.047Z,1007.68
2019-01-16T05:12:45.034Z,1007.74
2019-01-16T05:13:45.025Z,1007.69
2019-01-16T05:14:45.042Z,1007.71
2019-01-16T05:15:45.007Z,1007.70
2019-01-16T05:16:45.001Z,1007.68
2019-01-16T05:17:44.981Z,1007.71
2019-01-16T05:18:44.968Z,1007.71
2019-01-16T05:19:44.954Z,1007.69
2019-01-16T05:20:44.965Z,1007.72
2019-01-16T05:21:44.941Z,1007.72
2019-01-16T05:22:44.956Z,1007.72
2019-01-16T05:23:44.914Z,1007.69
2019-01-16T05:24:44.911Z,1007.74
2019-01-16T05:25:44.965Z,1007.68
2019-01-16T05:26:44.890Z,1007.74
2019-01-16T05:27:44.870Z,1007.64
2019-01-16T05:28:44.871Z,1007.67
2019-01-16T05:29:44.847Z,1007.65
2019-01-16T05:30:44.861Z,1007.67
2019-01-16T05:31:44.831Z,1007.65
2019-01-16T05:32:44.819Z,1007.66
2019-01-16T05:33:44.817Z,1007.59
2019-01-16T05:34:44.835Z,1007.64
2019-01-16T05:35:44.809Z,1007.60
2019-01-16T05:36:44.774Z,1007.62
2019-01-16T05:37:44.763Z,1007.61
2019-01-16T05:38:44.747Z,1007.64
2019-01-16T05:39:44.742Z,1007.58
2019-01-16T05:40:44.728Z,1007.65
2019-01-16T05:41:44.754Z,1007.66
2019-01-16T05:42:44.703Z,1007.66
2019-01-16T05:43:44.714Z,1007.66
2019-01-16T05:44:44.688Z,1007.59
2019-01-16T05:45:44.685Z,1007.60
2019-01-16T05:46:44.685Z,1007.58
2019-01-16T05:47:44.708Z,1007.50
2019-01-16T05:48:44.645Z,1007.54
2019-01-16T05:49:46.893Z,1007.51
2019-01-16T05:50:44.621Z,1007.48
2019-01-16T05:51:44.625Z,1007.48
2019-01-16T05:52:44.601Z,1007.46
2019-01-16T05:53:44.586Z,1007.49
2019-01-16T05:54:44.587Z,1007.43
2019-01-16T05:55:44.602Z,1007.49
2019-01-16T05:56:44.572Z,1007.47
2019-01-16T05:57:44.554Z,1007.47
2019-01-16T05:58:44.538Z,1007.45
2019-01-16T05:59:44.523Z,1007.45
2019-01-16T06:00:44.644Z,1007.46
2019-01-16T06:01:44.501Z,1007.45
2019-01-16T06:02:44.515Z,1007.49
2019-01-16T06:03:44.480Z,1007.46
2019-01-16T06:04:44.481Z,1007.48
2019-01-16T06:05:44.461Z,1007.47
2019-01-16T06:06:44.448Z,1007.43
2019-01-16T06:07:44.466Z,1007.46
2019-01-16T06:08:44.430Z,1007.44
2019-01-16T06:09:44.414Z,1007.43
2019-01-16T06:10:44.412Z,1007.45
2019-01-16T06:11:44.390Z,1007.43
2019-01-16T06:12:44.415Z,1007.43
2019-01-16T06:13:44.367Z,1007.45
2019-01-16T06:14:44.388Z,1007.45
2019-01-16T06:15:44.347Z,1007.50
2019-01-16T06:16:44.348Z,1007.47
2019-01-16T06:17:44.368Z,1007.45
2019-01-16T06:18:44.317Z,1007.43
2019-01-16T06:19:44.313Z,1007.43
2019-01-16T06:20:44.295Z,1007.46
2019-01-16T06:21:44.280Z,1007.45
2019-01-16T06:22:44.277Z,1007.44
2019-01-16T06:23:44.276Z,1007.42
2019-01-16T06:24:44.250Z,1007.46
2019-01-16T06:25:44.241Z,1007.41
2019-01-16T06:26:44.234Z,1007.43
2019-01-16T06:27:44.215Z,1007.40
2019-01-16T06:28:44.227Z,1007.43
2019-01-16T06:29:44.202Z,1007.39
2019-01-16T06:30:44.199Z,1007.39
2019-01-16T06:31:44.178Z,1007.41
2019-01-16T06:32:44.162Z,1007.40
2019-01-16T06:33:44.201Z,1007.40
2019-01-16T06:34:44.144Z,1007.39
2019-01-16T06:35:44.132Z,1007.41
2019-01-16T06:36:44.120Z,1007.35
2019-01-16T06:37:44.110Z,1007.33
2019-01-16T06:38:44.105Z,1007.36
2019-01-16T06:39:44.109Z,1007.43
2019-01-16T06:40:44.078Z,1007.33
2019-01-16T06:41:44.064Z,1007.33
2019-01-16T06:42:44.054Z,1007.36
2019-01-16T06:43:44.043Z,1007.30
2019-01-16T06:44:44.070Z,1007.31
2019-01-16T06:45:44.029Z,1007.31
2019-01-16T06:46:44.007Z,1007.26
2019-01-16T06:47:43.995Z,1007.27
2019-01-16T06:48:43.987Z,1007.29
2019-01-16T06:49:43.977Z,1007.24
2019-01-16T06:50:43.994Z,1007.29
2019-01-16T06:51:43.960Z,1007.31
2019-01-16T06:52:43.943Z,1007.32
2019-01-16T06:53:43.951Z,1007.29
2019-01-16T06:54:43.923Z,1007.27
2019-01-16T06:55:43.972Z,1007.27
2019-01-16T06:56:43.909Z,1007.26
2019-01-16T06:57:43.897Z,1007.25
2019-01-16T06:58:43.878Z,1007.25
2019-01-16T06:59:43.887Z,1007.26
2019-01-16T07:00:43.881Z,1007.19
2019-01-16T07:01:43.844Z,1007.20
2019-01-16T07:02:43.854Z,1007.22
2019-01-16T07:03:43.822Z,1007.26
2019-01-16T07:04:43.814Z,1007.22
2019-01-16T07:05:43.828Z,1007.25
2019-01-16T07:06:43.801Z,1007.25
2019-01-16T07:07:43.782Z,1007.28
2019-01-16T07:08:43.799Z,1007.41
2019-01-16T07:09:43.757Z,1007.31
2019-01-16T07:10:43.782Z,1007.41
2019-01-16T07:11:43.732Z,1007.32
2019-01-16T07:12:43.731Z,1007.34
2019-01-16T07:13:43.712Z,1007.29
2019-01-16T07:14:43.702Z,1007.30
2019-01-16T07:15:43.712Z,1007.35
2019-01-16T07:16:43.691Z,1007.28
2019-01-16T07:17:43.679Z,1007.41
2019-01-16T07:18:43.663Z,1007.34
2019-01-16T07:19:43.673Z,1007.30
2019-01-16T07:20:43.637Z,1007.28
2019-01-16T07:21:43.639Z,1007.22
2019-01-16T07:22:43.615Z,1007.31
2019-01-16T07:23:43.608Z,1007.32
2019-01-16T07:24:43.637Z,1007.26
2019-01-16T07:25:43.585Z,1007.27
2019-01-16T07:26:43.593Z,1007.29
2019-01-16T07:27:43.578Z,1007.22
2019-01-16T07:28:43.559Z,1007.24
2019-01-16T07:29:43.538Z,1007.30
2019-01-16T07:30:43.575Z,1007.05
2019-01-16T07:31:43.517Z,1007.17
2019-01-16T07:32:43.511Z,1007.13
2019-01-16T07:33:43.497Z,1007.20
2019-01-16T07:34:43.484Z,1007.21
2019-01-16T07:35:43.494Z,1007.23
2019-01-16T07:36:43.468Z,1007.29
2019-01-16T07:37:43.454Z,1007.28
2019-01-16T07:38:43.440Z,1007.35
2019-01-16T07:39:43.461Z,1007.31
2019-01-16T07:40:43.444Z,1007.37
2019-01-16T07:41:43.408Z,1007.41
2019-01-16T07:42:46.926Z,1007.36
2019-01-16T07:43:43.401Z,1007.34
2019-01-16T07:44:43.385Z,1007.27
2019-01-16T07:45:43.397Z,1007.28
2019-01-16T07:46:43.359Z,1007.35
2019-01-16T07:47:43.346Z,1007.28
2019-01-16T07:48:43.339Z,1007.26
2019-01-16T07:49:43.322Z,1007.26
2019-01-16T07:50:43.317Z,1007.27
2019-01-16T07:51:43.332Z,1007.29
2019-01-16T07:52:43.335Z,1007.30
2019-01-16T07:53:43.277Z,1007.31
2019-01-16T07:54:43.267Z,1007.37
2019-01-16T07:55:43.332Z,1007.35
2019-01-16T07:56:43.273Z,1007.38
2019-01-16T07:57:43.234Z,1007.33
2019-01-16T07:58:43.242Z,1007.38
2019-01-16T07:59:43.212Z,1007.37
2019-01-16T08:00:43.202Z,1007.39
2019-01-16T08:01:43.213Z,1007.41
2019-01-16T08:02:43.192Z,1007.33
2019-01-16T08:03:43.189Z,1007.40
2019-01-16T08:04:43.177Z,1007.36
2019-01-16T08:05:43.153Z,1007.37
2019-01-16T08:06:43.142Z,1007.38
2019-01-16T08:07:43.144Z,1007.31
2019-01-16T08:08:43.123Z,1007.38
2019-01-16T08:09:43.105Z,1007.34
2019-01-16T08:10:43.102Z,1007.38
2019-01-16T08:11:43.087Z,1007.36
2019-01-16T08:12:43.090Z,1007.37
2019-01-16T08:13:43.059Z,1007.44
2019-01-16T08:14:43.048Z,1007.43
2019-01-16T08:15:43.040Z,1007.53
2019-01-16T08:16:43.030Z,1007.49
2019-01-16T08:17:43.034Z,1007.50
2019-01-16T08:18:43.005Z,1007.54
2019-01-16T08:19:43.000Z,1007.58
2019-01-16T08:20:42.984Z,1007.60
2019-01-16T08:21:42.972Z,1007.53
2019-01-16T08:22:42.982Z,1007.55
2019-01-16T08:23:42.954Z,1007.55
2019-01-16T08:24:42.937Z,1007.65
2019-01-16T08:25:42.927Z,1007.63
2019-01-16T08:26:42.926Z,1007.66
2019-01-16T08:27:42.928Z,1007.55
2019-01-16T08:28:42.896Z,1007.60
2019-01-16T08:29:42.886Z,1007.54
2019-01-16T08:30:42.873Z,1007.56
2019-01-16T08:31:42.873Z,1007.58
2019-01-16T08:32:42.871Z,1007.63
2019-01-16T08:33:42.846Z,1007.60
2019-01-16T08:34:42.833Z,1007.58
2019-01-16T08:35:42.822Z,1007.56
2019-01-16T08:36:42.811Z,1007.58
2019-01-16T08:37:42.824Z,1007.54
2019-01-16T08:38:42.786Z,1007.53
2019-01-16T08:39:42.777Z,1007.53
2019-01-16T08:40:42.765Z,1007.54
2019-01-16T08:41:42.753Z,1007.54
2019-01-16T08:42:42.762Z,1007.50
2019-01-16T08:43:42.740Z,1007.53
2019-01-16T08:44:42.726Z,1007.65
2019-01-16T08:45:42.710Z,1007.57
2019-01-16T08:46:42.700Z,1007.61
2019-01-16T08:47:42.716Z,1007.63
2019-01-16T08:48:42.677Z,1007.63
2019-01-16T08:49:42.672Z,1007.61
2019-01-16T08:50:42.658Z,1007.57
2019-01-16T08:51:42.648Z,1007.59
2019-01-16T08:52:42.638Z,1007.56
2019-01-16T08:53:42.642Z,1007.52
2019-01-16T08:54:42.614Z,1007.51
2019-01-16T08:55:42.605Z,1007.62
2019-01-16T08:56:42.593Z,1007.56
2019-01-16T08:57:42.621Z,1007.47
2019-01-16T08:58:42.570Z,1007.43
2019-01-16T08:59:42.559Z,1007.47
2019-01-16T09:00:42.551Z,1007.49
2019-01-16T09:01:42.561Z,1007.39
2019-01-16T09:02:42.531Z,1007.36
2019-01-16T09:03:42.534Z,1007.42
2019-01-16T09:04:42.505Z,1007.39
2019-01-16T09:05:42.496Z,1007.38
2019-01-16T09:06:42.484Z,1007.29
2019-01-16T09:07:42.479Z,1007.36
2019-01-16T09:08:42.479Z,1007.30
2019-01-16T09:09:42.450Z,1007.30
2019-01-16T09:10:42.439Z,1007.30
2019-01-16T09:11:43.079Z,1007.27
2019-01-16T09:12:42.417Z,1007.22
2019-01-16T09:13:42.429Z,1007.25
2019-01-16T09:14:42.394Z,1007.22
2019-01-16T09:15:42.385Z,1007.23
2019-01-16T09:16:42.374Z,1007.23
2019-01-16T09:17:42.478Z,1007.25
2019-01-16T09:18:42.368Z,1007.23
2019-01-16T09:19:42.344Z,1007.30
2019-01-16T09:20:42.332Z,1007.22
2019-01-16T09:21:42.320Z,1007.21
2019-01-16T09:22:42.313Z,1007.21
2019-01-16T09:23:42.321Z,1007.26
2019-01-16T09:24:42.287Z,1007.27
2019-01-16T09:25:42.285Z,1007.28
2019-01-16T09:26:42.268Z,1007.29
2019-01-16T09:27:42.259Z,1007.25
2019-01-16T09:28:42.251Z,1007.25
2019-01-16T09:29:42.251Z,1007.26
2019-01-16T09:30:42.223Z,1007.26
2019-01-16T09:31:42.219Z,1007.22
2019-01-16T09:32:42.202Z,1007.23
2019-01-16T09:33:42.188Z,1007.25
2019-01-16T09:34:42.197Z,1007.26
2019-01-16T09:35:42.168Z,1007.27
2019-01-16T09:36:42.156Z,1007.24
2019-01-16T09:37:42.148Z,1007.26
2019-01-16T09:38:42.137Z,1007.20
2019-01-16T09:39:42.148Z,1007.19
2019-01-16T09:40:42.113Z,1007.16
2019-01-16T09:41:42.103Z,1007.18
2019-01-16T09:42:42.092Z,1007.17
2019-01-16T09:43:42.090Z,1007.21
2019-01-16T09:44:42.090Z,1007.16
2019-01-16T09:45:42.062Z,1007.18
2019-01-16T09:46:42.048Z,1007.21
2019-01-16T09:47:42.037Z,1007.14
2019-01-16T09:48:42.028Z,1007.11
2019-01-16T09:49:42.043Z,1007.06
2019-01-16T09:50:47.782Z,1007.10
2019-01-16T09:51:42.991Z,1007.07
2019-01-16T09:52:41.982Z,1007.06
2019-01-16T09:53:41.971Z,1007.06
2019-01-16T09:54:41.961Z,1007.04
2019-01-16T09:55:41.986Z,1007.00
2019-01-16T09:56:41.939Z,1006.95
2019-01-16T09:57:41.929Z,1006.95
2019-01-16T09:58:41.915Z,1006.86
2019-01-16T09:59:41.931Z,1006.87
2019-01-16T10:00:41.892Z,1006.87
2019-01-16T10:01:41.890Z,1006.84
2019-01-16T10:02:41.881Z,1006.86
2019-01-16T10:03:41.861Z,1006.88
2019-01-16T10:04:41.851Z,1006.82
2019-01-16T10:05:41.859Z,1006.86
2019-01-16T10:06:41.829Z,1006.76
2019-01-16T10:07:41.823Z,1006.80
2019-01-16T10:08:41.814Z,1006.77
2019-01-16T10:09:41.796Z,1006.73
2019-01-16T10:10:41.802Z,1006.70
2019-01-16T10:11:41.772Z,1006.71
2019-01-16T10:12:41.762Z,1006.77
2019-01-16T10:13:41.750Z,1006.72
2019-01-16T10:14:41.748Z,1006.70
2019-01-16T10:15:41.746Z,1006.61
2019-01-16T10:16:41.716Z,1006.57
2019-01-16T10:17:41.709Z,1006.56
2019-01-16T10:18:41.698Z,1006.57
2019-01-16T10:19:41.686Z,1006.60
2019-01-16T10:20:46.051Z,1006.56
2019-01-16T10:21:41.664Z,1006.57
2019-01-16T10:22:41.654Z,1006.57
2019-01-16T10:23:41.642Z,1006.57
2019-01-16T10:24:41.637Z,1006.54
2019-01-16T10:25:41.624Z,1006.54
2019-01-16T10:26:41.638Z,1006.52
2019-01-16T10:27:41.600Z,1006.49
2019-01-16T10:28:41.588Z,1006.46
2019-01-16T10:29:41.581Z,1006.48
2019-01-16T10:30:41.565Z,1006.38
2019-01-16T10:31:41.573Z,1006.33
2019-01-16T10:32:41.551Z,1006.37
2019-01-16T10:33:41.533Z,1006.34
2019-01-16T10:34:41.529Z,1006.35
2019-01-16T10:35:41.511Z,1006.40
2019-01-16T10:36:41.519Z,1006.34
2019-01-16T10:37:41.489Z,1006.36
2019-01-16T10:38:41.485Z,1006.37
2019-01-16T10:39:41.470Z,1006.36
2019-01-16T10:40:41.456Z,1006.37
2019-01-16T10:41:41.472Z,1006.31
2019-01-16T10:42:41.442Z,1006.33
2019-01-16T10:43:41.425Z,1006.26
2019-01-16T10:44:41.415Z,1006.29
2019-01-16T10:45:41.404Z,1006.29
2019-01-16T10:46:41.418Z,1006.31
2019-01-16T10:47:41.381Z,1006.38
2019-01-16T10:48:41.370Z,1006.30
2019-01-16T10:49:41.361Z,1006.31
2019-01-16T10:50:41.357Z,1006.25
2019-01-16T10:51:41.336Z,1006.27
2019-01-16T10:52:41.349Z,1006.19
2019-01-16T10:53:41.325Z,1006.16
2019-01-16T10:54:41.302Z,1006.18
2019-01-16T10:55:41.293Z,1006.19
2019-01-16T10:56:41.289Z,1006.14
2019-01-16T10:57:41.293Z,1006.13
2019-01-16T10:58:41.261Z,1006.14
2019-01-16T10:59:41.253Z,1006.10
2019-01-16T11:00:41.239Z,1006.11
2019-01-16T11:01:41.266Z,1006.06
2019-01-16T11:02:41.222Z,1006.05
2019-01-16T11:03:41.219Z,1006.03
2019-01-16T11:04:41.220Z,1005.97
2019-01-16T11:05:41.185Z,1005.98
2019-01-16T11:06:41.173Z,1005.96
2019-01-16T11:07:41.178Z,1005.99
2019-01-16T11:08:41.159Z,1005.96
2019-01-16T11:09:41.142Z,1005.92
2019-01-16T11:10:41.128Z,1005.89
2019-01-16T11:11:41.118Z,1005.91
2019-01-16T11:12:41.147Z,1005.86
2019-01-16T11:13:41.101Z,1005.86
2019-01-16T11:14:41.108Z,1005.78
2019-01-16T11:15:41.073Z,1005.75
2019-01-16T11:16:41.069Z,1005.78
2019-01-16T11:17:41.071Z,1005.75
2019-01-16T11:18:41.065Z,1005.72
2019-01-16T11:19:41.038Z,1005.71
2019-01-16T11:20:41.037Z,1005.72
2019-01-16T11:21:41.012Z,1005.68
2019-01-16T11:22:41.007Z,1005.69
2019-01-16T11:23:41.013Z,1005.60
2019-01-16T11:24:40.979Z,1005.63
2019-01-16T11:25:40.969Z,1005.62
2019-01-16T11:26:40.974Z,1005.59
2019-01-16T11:27:40.947Z,1005.54
2019-01-16T11:28:40.959Z,1005.52
2019-01-16T11:29:40.928Z,1005.51
2019-01-16T11:30:40.921Z,1005.51
2019-01-16T11:31:40.902Z,1005.46
2019-01-16T11:32:40.890Z,1005.45
2019-01-16T11:33:40.908Z,1005.47
2019-01-16T11:34:40.889Z,1005.44
2019-01-16T11:35:40.861Z,1005.45
2019-01-16T11:36:40.857Z,1005.39
2019-01-16T11:37:40.842Z,1005.37
2019-01-16T11:38:40.894Z,1005.44
2019-01-16T11:39:40.835Z,1005.35
2019-01-16T11:40:40.806Z,1005.31
2019-01-16T11:41:40.803Z,1005.29
2019-01-16T11:42:40.782Z,1005.22
2019-01-16T11:43:40.770Z,1005.22
2019-01-16T11:44:40.782Z,1005.13
2019-01-16T11:45:40.767Z,1005.06
2019-01-16T11:46:40.737Z,1005.09
2019-01-16T11:47:40.727Z,1005.03
2019-01-16T11:48:40.748Z,1005.01
2019-01-16T11:49:40.730Z,1004.98
2019-01-16T11:50:40.704Z,1004.99
2019-01-16T11:51:40.690Z,1004.96
2019-01-16T11:52:40.674Z,1004.92
2019-01-16T11:53:40.663Z,1004.98
2019-01-16T11:54:40.684Z,1004.91
2019-01-16T11:55:40.640Z,1004.97
2019-01-16T11:56:40.630Z,1004.97
2019-01-16T11:57:40.623Z,1004.94
2019-01-16T11:58:40.623Z,1004.94
2019-01-16T11:59:40.593Z,1004.95
2019-01-16T12:00:40.606Z,1004.90
2019-01-16T12:01:40.579Z,1004.92
2019-01-16T12:02:40.564Z,1004.86
2019-01-16T12:03:40.553Z,1004.87
2019-01-16T12:04:40.632Z,1004.81
2019-01-16T12:05:40.600Z,1004.85
2019-01-16T12:06:40.570Z,1004.84
2019-01-16T12:07:41.053Z,1004.89
2019-01-16T12:08:40.528Z,1004.85
2019-01-16T12:09:40.529Z,1004.87
2019-01-16T12:10:40.787Z,1004.86
2019-01-16T12:11:40.474Z,1004.86
2019-01-16T12:12:40.460Z,1004.72